Tiempo atmosférico en la estación meteorológica de Molina de Segura, Murcia (170 m.)



Fecha
DESCASC
Temp. máxima en grados centígrados (hora)
DESCASC
Temp. mínima en grados centígrados (hora)
DESCASC
Temp. media en grados centígrados
DESCASC
Racha de viento máxima en m/sg (hora)
DESCASC
Velocidad máxima media en intervalos de 10 minutos(hora)
DESCASC
Precipitaciones diarias en mm
DESCASC
Precipitaciones de 00:00 a 06:00 en mm
DESCASC
Precipitaciones de 06:00 a 12:00 en mm
DESCASC
Precipitaciones de 12:00 a 18:00 en mm
DESCASC
Precipitaciones de 18:00 a 24:00 en mm
DESCASC
17-09-2020 30 (17:20) 20.8 (08:10) 25.4 8.33 (17:10) 4.72 (17:40) 0.2 0 0 0 0.2
16-09-2020 32.5 (15:40) 17.9 (08:10) 25.2 8.33 (17:00) 5.28 (17:00) 0 0 0 0 0
15-09-2020 33.2 (16:20) 19.8 (08:00) 26.5 8.89 (18:50) 5.83 (18:50) 0 0 0 0 0
14-09-2020 30.8 (15:20) 17.1 (00:00) 23.9 8.89 (16:50) 5 (17:40) 0 0 0 0 0
13-09-2020 32 (15:30) 17 (00:00) 24.5 9.72 (14:20) 5.28 (14:00) 0 0 0 0 0
12-09-2020 33.2 (15:30) 16.3 (00:00) 24.8 8.89 (17:10) 5.56 (17:10) 0 0 0 0 0
11-09-2020 33.7 (16:00) 16.6 (00:00) 25.2 7.78 (16:50) 4.44 (17:20) 0 0 0 0 0
10-09-2020 31.6 (15:20) 16.2 (00:00) 23.9 10.56 (17:20) 6.94 (17:30) 0 0 0 0 0
09-09-2020 30.3 (15:20) 15.7 (00:00) 23 8.89 (17:20) 5.83 (17:20) 0 0 0 0 0
08-09-2020 28.2 (16:10) 16.9 (00:00) 22.6 8.89 (18:00) 5.56 (18:10) 0 0 0 0 0
07-09-2020 30.6 (15:30) 17.7 (07:50) 24.2 10 (21:30) 5.83 (16:50) 0 0 0 0 0
06-09-2020 31.3 (16:20) 16.9 (00:00) 24.1 6.94 (20:10) 4.44 (20:00) 0 0 0 0 0
05-09-2020 31.4 (15:50) 17.5 (00:00) 24.4 8.61 (18:20) 5 (18:10) 0 0 0 0 0
04-09-2020 30.4 (15:40) 16.9 (00:00) 23.6 9.72 (17:20) 5.56 (17:20) 0 0 0 0 0
03-09-2020 30.5 (15:20) 17.1 (00:00) 23.8 8.89 (17:40) 5.56 (18:00) 0 0 0 0 0
02-09-2020 30.7 (15:30) 17.7 (00:00) 24.2 10 (17:00) 6.39 (17:20) 0 0 0 0 0
01-09-2020 28.1 (17:00) 15.9 (00:00) 22 6.67 (17:00) 4.17 (17:50) 0 0 0 0 0
31-08-2020 28.5 (15:40) 14.7 (00:00) 21.6 10.28 (17:40) 5.56 (18:20) 0 0 0 0 0
30-08-2020 30 (16:40) 17 (00:00) 23.5 11.39 (18:20) 6.94 (17:50) 0 0 0 0 0
29-08-2020 34.5 (15:40) 21 (00:00) 27.8 10.83 (17:50) 6.94 (17:40) 0 0 0 0 0
28-08-2020 37.4 (16:40) 19.4 (00:00) 28.4 7.5 (17:10) 4.17 (17:30) 0 0 0 0 0
27-08-2020 38.8 (16:10) 19.5 (00:00) 29.1 10.83 (17:40) 6.67 (17:30) 0 0 0 0 0
26-08-2020 37.9 (15:50) 18.8 (00:00) 28.4 8.89 (17:50) 5.28 (17:20) 0 0 0 0 0
25-08-2020 36.1 (16:00) 19.5 (00:00) 27.8 9.44 (15:40) 5.28 (17:20) 0 0 0 0 0
24-08-2020 32.7 (17:30) 23.6 (00:00) 28.2 8.61 (18:10) 5.56 (16:30) 0 0 0 0 0
23-08-2020 34.3 (15:20) 22.7 (00:00) 28.5 10.56 (15:00) 5.83 (13:40) 0 0 0 0 0
22-08-2020 36.5 (14:20) 22.4 (00:00) 29.4 10 (15:40) 6.67 (15:30) 0 0 0 0 0
21-08-2020 38.3 (16:10) 22.9 (00:00) 30.6 9.17 (16:40) 5.28 (18:30) 0 0 0 0 0

Gráficas

Temp. máximas Temp. mínimas Temp. medias Precipitaciones Rachas de viento máximas Velocidades máximas media en intervalos de 10 minutos

Datos horarios

Fecha y hora oficial Temperatura (ºC) Velocidad del viento (km/h) Dirección del viento Racha (km/h) Dirección de racha Precipitación (mm) Presión (hPa) Tendencia (hPa) Humedad (%)
2020-09-19 23:00:00 23.3 5 Nordeste 14 Norte 0 -- -- 57
2020-09-19 22:00:00 24 5 Norte 22 Norte 0 -- -- 54
2020-09-19 21:00:00 25.2 12 Noroeste 22 Noroeste 0 -- -- 49
2020-09-19 20:00:00 27.6 9 Noroeste 18 Noroeste 0 -- -- 44
2020-09-19 19:00:00 28.9 8 Noroeste 20 Noroeste 0 -- -- 42
2020-09-19 18:00:00 30.7 8 Noroeste 17 Noroeste 0 -- -- 35
2020-09-19 17:00:00 30.8 6 Oeste 22 Norte 0 -- -- 35
2020-09-19 16:00:00 30.2 11 Noroeste 25 Noroeste 0 -- -- 36
2020-09-19 15:00:00 29.8 6 Oeste 22 Noroeste 0 -- -- 38
2020-09-19 14:00:00 28 6 Noroeste 22 Noroeste 0 -- -- 41
2020-09-19 13:00:00 26.8 17 Noroeste 27 Noroeste 0 -- -- 44
2020-09-19 12:00:00 24.9 15 Noroeste 28 Noroeste 0 -- -- 49
2020-09-19 11:00:00 23 18 Noroeste 28 Noroeste 0 -- -- 55
2020-09-19 10:00:00 20.4 11 Noroeste 20 Noroeste 0 -- -- 71
2020-09-19 09:00:00 18.1 0 Calma 17 Noroeste 0 -- -- 90
2020-09-19 08:00:00 17.4 11 Noroeste 17 Noroeste 0 -- -- 86
2020-09-19 07:00:00 17.1 13 Noroeste 17 Noroeste 0 -- -- 92
2020-09-19 06:00:00 17.1 2 Sudoeste 9 Sudoeste 0 -- -- 96
2020-09-19 05:00:00 17.4 3 Noroeste 8 Noroeste 0 -- -- 94
2020-09-19 04:00:00 18.4 6 Noroeste 10 Oeste 0 -- -- 96
2020-09-19 03:00:00 18.4 4 Oeste 7 Oeste 0 -- -- 94
2020-09-19 02:00:00 18.7 5 Noroeste 7 Noroeste 0 -- -- 92
2020-09-19 01:00:00 19 5 Norte 7 Noroeste 0 -- -- 92
2020-09-19 00:00:00 19.3 0 Calma 6 Nordeste 0 -- -- 90
2020-09-18 23:00:00 19.9 0 Calma 5 Este 0 -- -- 89
2020-09-18 22:00:00 20.8 0 Calma 11 Este 0 -- -- 86
2020-09-18 21:00:00 21.6 6 Nordeste 13 Sudeste 0 -- -- 84
2020-09-18 20:00:00 23.1 7 Sudeste 19 Sudeste 0 -- -- 78
2020-09-18 19:00:00 24.2 13 Sudeste 20 Sudeste 0 -- -- 73
2020-09-18 18:00:00 24 9 Sudeste 26 Sudeste 0 -- -- 76
2020-09-18 17:00:00 23.4 8 Sudeste 21 Sudeste 0 -- -- 79
2020-09-18 16:00:00 21.5 16 Sudeste 28 Este 0 -- -- 89
2020-09-18 15:00:00 19.6 10 Este 33 Sudeste 0.8 -- -- 96
2020-09-18 14:00:00 20.2 13 Este 21 Sudeste 0.8 -- -- 92
2020-09-18 13:00:00 20.4 11 Sudeste 17 Sudeste 0.2 -- -- 93
2020-09-18 12:00:00 19.9 0 Calma 12 Sudeste 0.2 -- -- 93
2020-09-18 11:00:00 19.7 7 Sudeste 12 Este 0.2 -- -- 94
2020-09-18 10:00:00 19 2 Nordeste 9 Este 0 -- -- 94
2020-09-18 09:00:00 18.7 0 Calma 13 Este 0.2 -- -- 93
2020-09-18 08:00:00 18.7 2 Este 39 Noroeste 2.6 -- -- 90
2020-09-18 07:00:00 21 27 Noroeste 47 Noroeste 0 -- -- 71
2020-09-18 06:00:00 21.9 24 Noroeste 43 Noroeste 0 -- -- 67
2020-09-18 05:00:00 22.3 21 Noroeste 37 Noroeste 0 -- -- 66
2020-09-18 04:00:00 21.8 8 Noroeste 15 Oeste 0 -- -- 93
2020-09-18 03:00:00 21.6 0 Calma 9 Norte 0 -- -- 91
2020-09-18 02:00:00 21.6 5 Norte 8 Norte 0 -- -- 92
2020-09-18 01:00:00 21.9 3 Nordeste 7 Este 0 -- -- 91
2020-09-18 00:00:00 22.5 5 Este 14 Este 0 -- -- 90
2020-09-17 23:00:00 22.9 7 Este 13 Este 0 -- -- 90
2020-09-17 22:00:00 23.4 6 Este 17 Este 0 -- -- 87
2020-09-17 21:00:00 24 10 Este 28 Este 0 -- -- 84
2020-09-17 20:00:00 24.9 12 Este 24 Este 0.2 -- -- 79
2020-09-17 19:00:00 26.3 17 Sudeste 24 Este 0 -- -- 75
2020-09-17 18:00:00 28.1 16 Este 30 Sudeste 0 -- -- 61
2020-09-17 17:00:00 29.9 15 Sudeste 25 Sudeste 0 -- -- 56
2020-09-17 16:00:00 29.7 13 Este 25 Este 0 -- -- 58
2020-09-17 15:00:00 28.7 13 Este 22 Este 0 -- -- 58
2020-09-17 14:00:00 28.1 10 Sudeste 21 Sudeste 0 -- -- 59
2020-09-17 13:00:00 27 9 Sudeste 17 Sudeste 0 -- -- 63
2020-09-17 12:00:00 25.2 9 Sudeste 16 Sudeste 0 -- -- 71
2020-09-17 11:00:00 24.1 3 Este 5 Este 0 -- -- 71
2020-09-17 10:00:00 22.3 0 Calma 5 Norte 0 -- -- 76
2020-09-17 09:00:00 21.1 0 Calma 5 Oeste 0 -- -- 77
2020-09-17 08:00:00 20.9 3 Noroeste 5 Noroeste 0 -- -- 77
2020-09-17 07:00:00 21.1 4 Noroeste 11 Este 0 -- -- 82
2020-09-17 06:00:00 21.5 5 Norte 10 Norte 0 -- -- 82
2020-09-17 05:00:00 21.6 4 Norte 10 Noroeste 0 -- -- 83
2020-09-17 04:00:00 21.3 7 Norte 9 Norte 0 -- -- 81
2020-09-17 03:00:00 21.5 3 Noroeste 6 Sudeste 0 -- -- 85
2020-09-17 02:00:00 21.8 0 Calma 7 Este 0 -- -- 84
2020-09-17 01:00:00 22.3 5 Este 7 Nordeste 0 -- -- 85
2020-09-17 00:00:00 22.8 4 Este 9 Este 0 -- -- 81
2020-09-16 23:00:00 23.1 6 Este 9 Sudeste 0 -- -- 75
2020-09-16 22:00:00 24.1 7 Este 14 Este 0 -- -- 72
2020-09-16 21:00:00 25.2 8 Este 19 Sudeste 0 -- -- 63
2020-09-16 20:00:00 26.6 13 Este 21 Este 0 -- -- 58
2020-09-16 19:00:00 28.1 14 Este 26 Sudeste 0 -- -- 51
2020-09-16 18:00:00 29.7 18 Sudeste 28 Sudeste 0 -- -- 43
2020-09-16 17:00:00 30.9 19 Sudeste 30 Este 0 -- -- 40
2020-09-16 16:00:00 31.7 14 Este 26 Sudeste 0 -- -- 41
2020-09-16 15:00:00 31.6 11 Este 21 Sudeste 0 -- -- 40
2020-09-16 14:00:00 31 7 Sudeste 19 Sudeste 0 -- -- 44
2020-09-16 13:00:00 29.1 5 Este 17 Sudeste 0 -- -- 45
2020-09-16 12:00:00 27.1 5 Este 13 Este 0 -- -- 55
2020-09-16 11:00:00 24.6 4 Oeste 12 Norte 0 -- -- 65
2020-09-16 10:00:00 22 8 Noroeste 15 Norte 0 -- -- 83
2020-09-16 09:00:00 19.1 4 Noroeste 9 Noroeste 0 -- -- 97
2020-09-16 08:00:00 18 4 Norte 8 Norte 0 -- -- 94
2020-09-16 07:00:00 18.5 2 Norte 5 Noroeste 0 -- -- 94
2020-09-16 06:00:00 19 4 Noroeste 9 Norte 0 -- -- 94
2020-09-16 05:00:00 19.4 3 Norte 7 Noroeste 0 -- -- 92
2020-09-16 04:00:00 19.8 5 Noroeste 6 Norte 0 -- -- 91
2020-09-16 03:00:00 20.7 3 Noroeste 5 Noroeste 0 -- -- 90
2020-09-16 02:00:00 21.3 2 Norte 5 Noroeste 0 -- -- 90
2020-09-16 01:00:00 21.3 4 Noroeste 5 Norte 0 -- -- 88
2020-09-16 00:00:00 22.3 0 Calma 4 Sudeste 0 -- -- 85
2020-09-15 23:00:00 23.4 3 Sudeste 10 Este 0 -- -- 84
2020-09-15 22:00:00 24.1 6 Este 17 Este 0 -- -- 80
2020-09-15 21:00:00 25.1 8 Este 24 Este 0 -- -- 74
2020-09-15 20:00:00 26.7 14 Este 30 Este 0 -- -- 66
2020-09-15 19:00:00 29.2 19 Sudeste 32 Este 0 -- -- 51
2020-09-15 18:00:00 31.1 18 Sudeste 30 Este 0 -- -- 42
2020-09-15 17:00:00 31.9 18 Este 31 Sudeste 0 -- -- 40
2020-09-15 16:00:00 33.1 13 Sudeste 27 Sudeste 0 -- -- 35
2020-09-15 15:00:00 32.2 10 Sudeste 23 Nordeste 0 -- -- 37
2020-09-15 14:00:00 31.3 12 Este 20 Sudeste 0 -- -- 38
2020-09-15 13:00:00 30.2 5 Sudoeste 11 Nordeste 0 -- -- 41
2020-09-15 12:00:00 28 3 Norte 11 Oeste 0 -- -- 49
2020-09-15 11:00:00 25.7 5 Norte 9 Norte 0 -- -- 61
2020-09-15 10:00:00 22.9 3 Norte 6 Norte 0 -- -- 75
2020-09-15 09:00:00 20.9 7 Noroeste 18 Norte 0 -- -- 83
2020-09-15 08:00:00 19.8 5 Noroeste 12 Noroeste 0 -- -- 86
2020-09-15 07:00:00 20.1 4 Noroeste 9 Noroeste 0 -- -- 87
2020-09-15 06:00:00 21 6 Noroeste 9 Noroeste 0 -- -- 87
2020-09-15 05:00:00 21.2 4 Nordeste 9 Norte 0 -- -- 88
2020-09-15 04:00:00 21.5 5 Norte 9 Noroeste 0 -- -- 89
2020-09-15 03:00:00 22.7 3 Oeste 14 Sudeste 0 -- -- 90
2020-09-15 02:00:00 23 8 Este 31 Este 0 -- -- 90
2020-09-15 01:00:00 23.1 10 Este 23 Este 0 -- -- 89
2020-09-15 00:00:00 23.4 5 Sudeste 13 Sudeste 0 -- -- 83
2020-09-14 23:00:00 23.8 6 Este 15 Sudeste 0 -- -- 81
2020-09-14 22:00:00 24 7 Sudeste 18 Sudeste 0 -- -- 75
2020-09-14 21:00:00 24.6 9 Este 17 Este 0 -- -- 69
2020-09-14 20:00:00 26.3 11 Este 22 Sudeste 0 -- -- 64
2020-09-14 19:00:00 28.3 15 Este 25 Sudeste 0 -- -- 54
2020-09-14 18:00:00 29.5 15 Este 31 Este 0 -- -- 51
2020-09-14 17:00:00 30.2 15 Este 32 Este 0 -- -- 47
2020-09-14 16:00:00 30.7 15 Este 30 Sudeste 0 -- -- 49
2020-09-14 15:00:00 30.6 17 Este 28 Este 0 -- -- 51
2020-09-14 14:00:00 29.6 11 Sudeste 23 Sudeste 0 -- -- 52
2020-09-14 13:00:00 28.4 10 Sudeste 26 Este 0 -- -- 55
2020-09-14 12:00:00 27.1 13 Sudeste 23 Sudeste 0 -- -- 61
2020-09-14 11:00:00 25.8 12 Sudeste 20 Este 0 -- -- 67
2020-09-14 10:00:00 23.3 4 Este 10 Norte 0 -- -- 59
2020-09-14 09:00:00 20.4 7 Norte 23 Norte 0 -- -- 68
2020-09-14 08:00:00 18.1 17 Norte 23 Norte 0 -- -- 78
2020-09-14 07:00:00 17.2 5 Oeste 10 Noroeste 0 -- -- 79
2020-09-14 06:00:00 17.7 5 Noroeste 6 Noroeste 0 -- -- 76
2020-09-14 05:00:00 18.7 4 Norte 14 Norte 0 -- -- 75
2020-09-14 04:00:00 18.2 8 Noroeste 10 Noroeste 0 -- -- 77
2020-09-14 03:00:00 18.3 5 Noroeste 5 Noroeste 0 -- -- 76
2020-09-14 02:00:00 19 4 Norte 7 Norte 0 -- -- 78
2020-09-14 01:00:00 20 4 Norte 9 Noroeste 0 -- -- 81
2020-09-14 00:00:00 20.9 4 Noroeste 6 Noroeste 0 -- -- 78
2020-09-13 23:00:00 23 2 Sur 9 Sudeste 0 -- -- 75
2020-09-13 22:00:00 24.2 8 Este 16 Este 0 -- -- 74
2020-09-13 21:00:00 25.3 9 Este 16 Este 0 -- -- 65
2020-09-13 20:00:00 26.8 9 Este 18 Este 0 -- -- 55
2020-09-13 19:00:00 28.4 12 Este 23 Este 0 -- -- 49
2020-09-13 18:00:00 29.6 15 Sudeste 26 Este 0 -- -- 44
2020-09-13 17:00:00 30.4 18 Sudeste 26 Este 0 -- -- 42
2020-09-13 16:00:00 31.5 18 Este 30 Sudeste 0 -- -- 38
2020-09-13 15:00:00 30.7 18 Este 35 Sudeste 0 -- -- 40
2020-09-13 14:00:00 31.1 19 Sudeste 31 Sudeste 0 -- -- 40
2020-09-13 13:00:00 29.7 15 Sudeste 27 Sudeste 0 -- -- 41
2020-09-13 12:00:00 28.8 14 Sudeste 24 Sudeste 0 -- -- 45
2020-09-13 11:00:00 26.1 4 Noroeste 14 Norte 0 -- -- 51
2020-09-13 10:00:00 23.3 7 Norte 18 Norte 0 -- -- 60
2020-09-13 09:00:00 18.8 6 Noroeste 13 Norte 0 -- -- 76
2020-09-13 08:00:00 17 0 Calma 8 Norte 0 -- -- 81
2020-09-13 07:00:00 17.5 0 Calma 8 Noroeste 0 -- -- 85
2020-09-13 06:00:00 17.5 0 Calma 5 Noroeste 0 -- -- 85
2020-09-13 05:00:00 18.2 2 Oeste 6 Oeste 0 -- -- 84
2020-09-13 04:00:00 18.3 3 Noroeste 7 Norte 0 -- -- 80
2020-09-13 03:00:00 19.3 3 Noroeste 8 Noroeste 0 -- -- 83
2020-09-13 02:00:00 19.8 5 Noroeste 8 Noroeste 0 -- -- 82
2020-09-13 01:00:00 20.8 4 Noroeste 6 Noroeste 0 -- -- 80
2020-09-13 00:00:00 22.4 0 Calma 10 Este 0 -- -- 78
2020-09-12 23:00:00 23.2 5 Este 13 Este 0 -- -- 75
2020-09-12 22:00:00 24 10 Este 16 Este 0 -- -- 70
2020-09-12 21:00:00 25.5 10 Este 24 Este 0 -- -- 62
2020-09-12 20:00:00 27.7 17 Sudeste 28 Este 0 -- -- 50
2020-09-12 19:00:00 30.1 16 Sudeste 28 Sudeste 0 -- -- 40
2020-09-12 18:00:00 31.2 16 Sudeste 32 Sudeste 0 -- -- 36
2020-09-12 17:00:00 32.5 20 Sudeste 31 Sudeste 0 -- -- 33
2020-09-12 16:00:00 33.2 12 Sudeste 30 Sudeste 0 -- -- 32
2020-09-12 15:00:00 32.7 10 Sudeste 23 Sudeste 0 -- -- 33
2020-09-12 14:00:00 31.3 12 Sudeste 23 Sur 0 -- -- 35
2020-09-12 13:00:00 30.1 11 Sudeste 20 Sudeste 0 -- -- 36
2020-09-12 12:00:00 27.9 5 Sur 11 Sur 0 -- -- 43
2020-09-12 11:00:00 25.4 3 Sur 8 Sur 0 -- -- 52
2020-09-12 10:00:00 22.3 3 Sudoeste 5 Sudoeste 0 -- -- 65
2020-09-12 09:00:00 18 3 Oeste 6 Noroeste 0 -- -- 83
2020-09-12 08:00:00 16.3 4 Noroeste 7 Noroeste 0 -- -- 78
2020-09-12 07:00:00 16.9 5 Noroeste 6 Noroeste 0 -- -- 76
2020-09-12 06:00:00 17.6 4 Noroeste 6 Norte 0 -- -- 76
2020-09-12 05:00:00 18.6 2 Nordeste 5 Sudeste 0 -- -- 74
2020-09-12 04:00:00 20.2 2 Este 12 Este 0 -- -- 72
2020-09-12 03:00:00 20.5 5 Este 9 Este 0 -- -- 73
2020-09-12 02:00:00 21.3 4 Nordeste 13 Este 0 -- -- 70
2020-09-12 01:00:00 21.9 6 Este 12 Este 0 -- -- 78
2020-09-12 00:00:00 22.2 4 Este 10 Este 0 -- -- 71
2020-09-11 23:00:00 23.2 5 Sudeste 9 Este 0 -- -- 66
2020-09-11 22:00:00 24.5 7 Este 15 Este 0 -- -- 61
2020-09-11 21:00:00 26.4 9 Este 18 Sudeste 0 -- -- 47
2020-09-11 20:00:00 29 10 Sudeste 24 Sur 0 -- -- 36
2020-09-11 19:00:00 31.6 13 Sur 25 Sudeste 0 -- -- 32
2020-09-11 18:00:00 32.8 12 Sudeste 26 Sudeste 0 -- -- 31
2020-09-11 17:00:00 32.8 14 Sudeste 28 Sur 0 -- -- 31
2020-09-11 16:00:00 33.7 6 Sudoeste 20 Sur 0 -- -- 31
2020-09-11 15:00:00 32.6 9 Sudoeste 21 Sur 0 -- -- 33
2020-09-11 14:00:00 30.7 11 Sur 19 Sudoeste 0 -- -- 37
2020-09-11 13:00:00 28.9 8 Oeste 17 Oeste 0 -- -- 43
2020-09-11 12:00:00 26.6 7 Oeste 14 Oeste 0 -- -- 52
2020-09-11 11:00:00 24.4 6 Oeste 14 Oeste 0 -- -- 62
2020-09-11 10:00:00 21.7 8 Oeste 17 Noroeste 0 -- -- 73
2020-09-11 09:00:00 17.8 0 Calma 6 Noroeste 0 -- -- 90
2020-09-11 08:00:00 17.2 4 Oeste 9 Noroeste 0 -- -- 88
2020-09-11 07:00:00 16.6 6 Noroeste 9 Noroeste 0 -- -- 90
2020-09-11 06:00:00 17.2 2 Oeste 8 Noroeste 0 -- -- 88
2020-09-11 05:00:00 17.4 6 Noroeste 8 Norte 0 -- -- 88
2020-09-11 04:00:00 17.8 5 Noroeste 7 Noroeste 0 -- -- 85
2020-09-11 03:00:00 18.8 3 Norte 6 Noroeste 0 -- -- 86
2020-09-11 02:00:00 19.2 3 Norte 8 Noroeste 0 -- -- 83
2020-09-11 01:00:00 20.2 2 Norte 8 Este 0 -- -- 82
2020-09-11 00:00:00 21.1 4 Nordeste 8 Este 0 -- -- 80
2020-09-10 23:00:00 22.1 3 Sudeste 10 Este 0 -- -- 74
2020-09-10 22:00:00 23.1 6 Este 14 Este 0 -- -- 72
2020-09-10 21:00:00 24.4 5 Sudeste 17 Sudeste 0 -- -- 66
2020-09-10 20:00:00 26.3 13 Sudeste 23 Sudeste 0 -- -- 59
2020-09-10 19:00:00 27.6 15 Sudeste 32 Este 0 -- -- 54
2020-09-10 18:00:00 27.8 22 Este 38 Este 0 -- -- 55
2020-09-10 17:00:00 30.5 20 Sudeste 35 Este 0 -- -- 48
2020-09-10 16:00:00 31.2 14 Sudeste 32 Sudeste 0 -- -- 45
2020-09-10 15:00:00 30.8 10 Sudeste 26 Sudeste 0 -- -- 40
2020-09-10 14:00:00 29.7 11 Este 20 Sur 0 -- -- 41
2020-09-10 13:00:00 27.6 7 Este 17 Sudeste 0 -- -- 50
2020-09-10 12:00:00 25.7 6 Sudoeste 13 Oeste 0 -- -- 56
2020-09-10 11:00:00 23.7 6 Oeste 16 Oeste 0 -- -- 64
2020-09-10 10:00:00 21.2 4 Norte 15 Norte 0 -- -- 76
2020-09-10 09:00:00 17.9 3 Sudoeste 9 Noroeste 0 -- -- 91
2020-09-10 08:00:00 16.5 8 Norte 11 Norte 0 -- -- 91
2020-09-10 07:00:00 16.4 2 Noroeste 8 Noroeste 0 -- -- 87
2020-09-10 06:00:00 16.7 7 Noroeste 9 Norte 0 -- -- 87
2020-09-10 05:00:00 17.5 2 Nordeste 5 Norte 0 -- -- 87
2020-09-10 04:00:00 18.1 3 Norte 7 Norte 0 -- -- 85
2020-09-10 03:00:00 18.1 5 Norte 8 Noroeste 0 -- -- 83
2020-09-10 02:00:00 18.7 4 Norte 6 Norte 0 -- -- 82
2020-09-10 01:00:00 19.3 3 Norte 6 Norte 0 -- -- 79
2020-09-10 00:00:00 20.1 3 Norte 5 Noroeste 0 -- -- 74
2020-09-09 23:00:00 21 0 Calma 5 Sudeste 0 -- -- 73
2020-09-09 22:00:00 22.3 2 Sudeste 14 Sudeste 0 -- -- 66
2020-09-09 21:00:00 23.5 10 Sudeste 19 Sudeste 0 -- -- 65
2020-09-09 20:00:00 25.4 13 Sudeste 24 Este 0 -- -- 58
2020-09-09 19:00:00 27.3 15 Sudeste 31 Sudeste 0 -- -- 51
2020-09-09 18:00:00 28.2 18 Sudeste 32 Este 0 -- -- 48
2020-09-09 17:00:00 29.4 15 Este 28 Sudeste 0 -- -- 43
2020-09-09 16:00:00 28.9 12 Sudeste 30 Sudeste 0 -- -- 43
2020-09-09 15:00:00 29.3 6 Oeste 22 Sudeste 0 -- -- 40
2020-09-09 14:00:00 28.4 6 Sudeste 16 Sudeste 0 -- -- 43
2020-09-09 13:00:00 27.9 4 Sur 15 Sudoeste 0 -- -- 44
2020-09-09 12:00:00 26.2 6 Sur 19 Noroeste 0 -- -- 48
2020-09-09 11:00:00 24 12 Noroeste 22 Noroeste 0 -- -- 53
2020-09-09 10:00:00 21.2 13 Noroeste 22 Noroeste 0 -- -- 59
2020-09-09 09:00:00 18.6 12 Norte 20 Norte 0 -- -- 67
2020-09-09 08:00:00 16.2 0 Calma 15 Noroeste 0 -- -- 76
2020-09-09 07:00:00 16.6 10 Norte 15 Norte 0 -- -- 74
2020-09-09 06:00:00 15.8 4 Noroeste 12 Norte 0 -- -- 79
2020-09-09 05:00:00 16.1 4 Norte 9 Norte 0 -- -- 80
2020-09-09 04:00:00 16.8 2 Noroeste 10 Noroeste 0 -- -- 78
2020-09-09 03:00:00 17 3 Noroeste 5 Norte 0 -- -- 80
2020-09-09 02:00:00 17.5 5 Noroeste 9 Norte 0 -- -- 77
2020-09-09 01:00:00 17.9 6 Norte 9 Norte 0 -- -- 76
2020-09-09 00:00:00 18.5 6 Norte 8 Norte 0 -- -- 71
2020-09-08 23:00:00 19.5 4 Norte 6 Norte 0 -- -- 67
2020-09-08 22:00:00 21.1 0 Calma 9 Sudeste 0 -- -- 63
2020-09-08 21:00:00 22.6 6 Sudeste 17 Sudeste 0 -- -- 59
2020-09-08 20:00:00 24.2 13 Sudeste 28 Sudeste 0 -- -- 53
2020-09-08 19:00:00 25.5 17 Sudeste 31 Sudeste 0 -- -- 51
2020-09-08 18:00:00 26.8 18 Sudeste 32 Sudeste 0 -- -- 48
2020-09-08 17:00:00 27 18 Este 29 Sudeste 0 -- -- 44
2020-09-08 16:00:00 27.8 13 Sudeste 26 Este 0 -- -- 42
2020-09-08 15:00:00 27.5 12 Sudeste 30 Este 0 -- -- 43
2020-09-08 14:00:00 26.9 15 Sudeste 29 Este 0 -- -- 44
2020-09-08 13:00:00 26.2 14 Este 28 Sudeste 0 -- -- 48
2020-09-08 12:00:00 25.4 13 Sudeste 26 Sudeste 0 -- -- 49
2020-09-08 11:00:00 24 14 Sudeste 26 Este 0 -- -- 54
2020-09-08 10:00:00 22.1 9 Nordeste 18 Nordeste 0 -- -- 59
2020-09-08 09:00:00 18.3 7 Norte 10 Norte 0 -- -- 74
2020-09-08 08:00:00 16.9 10 Norte 12 Norte 0 -- -- 76
2020-09-08 07:00:00 17 4 Norte 8 Norte 0 -- -- 75
2020-09-08 06:00:00 17.4 4 Noroeste 6 Norte 0 -- -- 74
2020-09-08 05:00:00 17.9 0 Calma 8 Norte 0 -- -- 73
2020-09-08 04:00:00 18.4 3 Norte 8 Norte 0 -- -- 72
2020-09-08 03:00:00 18.8 6 Nordeste 8 Nordeste 0 -- -- 73
2020-09-08 02:00:00 19.9 3 Norte 7 Norte 0 -- -- 75
2020-09-08 01:00:00 20.3 3 Nordeste 13 Sudeste 0 -- -- 77
2020-09-08 00:00:00 21.4 9 Sudeste 27 Este 0 -- -- 74
2020-09-07 23:00:00 22 18 Sudeste 32 Este 0 -- -- 73
2020-09-07 22:00:00 22.8 19 Sudeste 36 Este 0 -- -- 68
2020-09-07 21:00:00 24.2 17 Sudeste 31 Este 0 -- -- 58
2020-09-07 20:00:00 25.2 15 Sudeste 26 Sudeste 0 -- -- 62
2020-09-07 19:00:00 26.3 18 Sudeste 33 Sudeste 0 -- -- 61
2020-09-07 18:00:00 28.2 20 Sudeste 32 Sudeste 0 -- -- 56
2020-09-07 17:00:00 29.8 18 Sudeste 31 Sudeste 0 -- -- 51
2020-09-07 16:00:00 30 17 Este 31 Sudeste 0 -- -- 51
2020-09-07 15:00:00 30.2 10 Sudeste 23 Sudeste 0 -- -- 50
2020-09-07 14:00:00 29.1 9 Sudoeste 17 Sudoeste 0 -- -- 54
2020-09-07 13:00:00 28.1 5 Oeste 17 Sudeste 0 -- -- 56
2020-09-07 12:00:00 26.6 8 Sudeste 14 Sudeste 0 -- -- 62
2020-09-07 11:00:00 24.4 4 Este 11 Nordeste 0 -- -- 71
2020-09-07 10:00:00 22.3 2 Norte 7 Norte 0 -- -- 81
2020-09-07 09:00:00 19 3 Norte 6 Noroeste 0 -- -- 92
2020-09-07 08:00:00 17.7 5 Noroeste 7 Norte 0 -- -- 91
2020-09-07 07:00:00 18 7 Norte 9 Norte 0 -- -- 91
2020-09-07 06:00:00 18 3 Norte 6 Noroeste 0 -- -- 88
2020-09-07 05:00:00 18.3 3 Norte 5 Norte 0 -- -- 88
2020-09-07 04:00:00 19 2 Noroeste 5 Noroeste 0 -- -- 84
2020-09-07 03:00:00 19.7 0 Calma 6 Este 0 -- -- 83
2020-09-07 02:00:00 20.2 4 Nordeste 6 Nordeste 0 -- -- 83
2020-09-07 01:00:00 21.1 3 Nordeste 6 Este 0 -- -- 79
2020-09-07 00:00:00 21.9 4 Este 7 Este 0 -- -- 77
2020-09-06 23:00:00 22.9 4 Este 12 Sudeste 0 -- -- 73
2020-09-06 22:00:00 23.9 8 Sudeste 15 Sudeste 0 -- -- 69
2020-09-06 21:00:00 25.2 9 Sudeste 25 Este 0 -- -- 65
2020-09-06 20:00:00 27.7 16 Sudeste 24 Este 0 -- -- 55
2020-09-06 19:00:00 29.9 14 Este 24 Sudeste 0 -- -- 48
2020-09-06 18:00:00 30.9 10 Sudeste 21 Sudeste 0 -- -- 44
2020-09-06 17:00:00 31.3 9 Sudeste 22 Sudeste 0 -- -- 42
2020-09-06 16:00:00 31 10 Este 20 Sudeste 0 -- -- 42
2020-09-06 15:00:00 30.2 9 Sudeste 20 Sudeste 0 -- -- 43
2020-09-06 14:00:00 29.1 5 Este 19 Sudeste 0 -- -- 47
2020-09-06 13:00:00 28.3 8 Sudeste 22 Sudeste 0 -- -- 50
2020-09-06 12:00:00 26.1 9 Sudeste 19 Sudeste 0 -- -- 57
2020-09-06 11:00:00 24.6 6 Este 13 Sudeste 0 -- -- 63
2020-09-06 10:00:00 21.8 2 Nordeste 6 Noroeste 0 -- -- 75
2020-09-06 09:00:00 18.6 4 Noroeste 6 Norte 0 -- -- 92
2020-09-06 08:00:00 16.9 4 Noroeste 6 Noroeste 0 -- -- 91
2020-09-06 07:00:00 17.8 3 Norte 4 Norte 0 -- -- 88
2020-09-06 06:00:00 18.8 2 Este 9 Norte 0 -- -- 87
2020-09-06 05:00:00 19.3 7 Norte 10 Norte 0 -- -- 87
2020-09-06 04:00:00 19.9 9 Norte 10 Norte 0 -- -- 87
2020-09-06 03:00:00 20.5 7 Noroeste 9 Norte 0 -- -- 83
2020-09-06 02:00:00 21 3 Norte 4 Noroeste 0 -- -- 80
2020-09-06 01:00:00 20.7 3 Noroeste 5 Noroeste 0 -- -- 79
2020-09-06 00:00:00 22.3 0 Calma 5 Nordeste 0 -- -- 76
2020-09-05 23:00:00 23.2 4 Sudeste 9 Sudeste 0 -- -- 75
2020-09-05 22:00:00 23.8 5 Sudeste 15 Este 0 -- -- 72
2020-09-05 21:00:00 24.6 11 Sudeste 24 Este 0 -- -- 69
2020-09-05 20:00:00 26.7 14 Sudeste 28 Este 0 -- -- 62
2020-09-05 19:00:00 28.3 18 Sudeste 31 Sudeste 0 -- -- 57
2020-09-05 18:00:00 29.7 16 Sudeste 28 Este 0 -- -- 50
2020-09-05 17:00:00 30.3 14 Sudeste 30 Sur 0 -- -- 48
2020-09-05 16:00:00 31.3 13 Sur 28 Sudeste 0 -- -- 44
2020-09-05 15:00:00 30.5 9 Sudeste 25 Sudeste 0 -- -- 43
2020-09-05 14:00:00 29.4 11 Sudeste 22 Sudeste 0 -- -- 46
2020-09-05 13:00:00 28.1 10 Sudeste 19 Sudeste 0 -- -- 50
2020-09-05 12:00:00 26.5 5 Sudeste 15 Oeste 0 -- -- 57
2020-09-05 11:00:00 24.9 5 Norte 12 Norte 0 -- -- 64
2020-09-05 10:00:00 23 9 Noroeste 13 Noroeste 0 -- -- 70
2020-09-05 09:00:00 19.4 6 Norte 11 Norte 0 -- -- 85
2020-09-05 08:00:00 17.5 4 Norte 9 Norte 0 -- -- 88
2020-09-05 07:00:00 17.9 5 Noroeste 13 Norte 0 -- -- 87
2020-09-05 06:00:00 17.8 4 Norte 6 Norte 0 -- -- 88
2020-09-05 05:00:00 18 3 Noroeste 5 Noroeste 0 -- -- 85
2020-09-05 04:00:00 18.9 0 Calma 8 Norte 0 -- -- 83
2020-09-05 03:00:00 19.5 6 Norte 9 Norte 0 -- -- 83
2020-09-05 02:00:00 19.8 8 Norte 9 Norte 0 -- -- 82
2020-09-05 01:00:00 20.1 5 Norte 6 Norte 0 -- -- 79
2020-09-05 00:00:00 21.2 4 Nordeste 7 Este 0 -- -- 77
2020-09-04 23:00:00 22.2 3 Nordeste 9 Este 0 -- -- 74
2020-09-04 22:00:00 23.4 5 Este 13 Este 0 -- -- 70
2020-09-04 21:00:00 24.5 10 Sudeste 22 Sudeste 0 -- -- 65
2020-09-04 20:00:00 26.4 17 Sudeste 29 Este 0 -- -- 58
2020-09-04 19:00:00 27.9 18 Sudeste 28 Sudeste 0 -- -- 55
2020-09-04 18:00:00 28.9 20 Sudeste 35 Este 0 -- -- 49
2020-09-04 17:00:00 29.6 19 Sudeste 34 Este 0 -- -- 48
2020-09-04 16:00:00 30.3 18 Este 33 Este 0 -- -- 46
2020-09-04 15:00:00 30 19 Sudeste 30 Este 0 -- -- 45
2020-09-04 14:00:00 29.3 15 Sudeste 26 Este 0 -- -- 47
2020-09-04 13:00:00 28.6 13 Este 25 Sudeste 0 -- -- 49
2020-09-04 12:00:00 27.4 13 Sudeste 28 Sudeste 0 -- -- 55
2020-09-04 11:00:00 25 9 Sudeste 17 Sudeste 0 -- -- 65
2020-09-04 10:00:00 22.5 4 Sudeste 10 Sudeste 0 -- -- 75
2020-09-04 09:00:00 18.6 3 Oeste 8 Norte 0 -- -- 91
2020-09-04 08:00:00 16.9 2 Norte 6 Noroeste 0 -- -- 89
2020-09-04 07:00:00 17.2 3 Noroeste 9 Norte 0 -- -- 88
2020-09-04 06:00:00 17.9 7 Norte 9 Norte 0 -- -- 88
2020-09-04 05:00:00 18.1 4 Norte 7 Norte 0 -- -- 85
2020-09-04 04:00:00 18.9 2 Norte 9 Norte 0 -- -- 81
2020-09-04 03:00:00 19.4 4 Norte 6 Nordeste 0 -- -- 81
2020-09-04 02:00:00 19.9 5 Norte 6 Norte 0 -- -- 80
2020-09-04 01:00:00 20.7 0 Calma 6 Nordeste 0 -- -- 76
2020-09-04 00:00:00 21.2 5 Nordeste 8 Nordeste 0 -- -- 75
2020-09-03 23:00:00 22 6 Este 9 Este 0 -- -- 72
2020-09-03 22:00:00 23.2 5 Este 17 Este 0 -- -- 67
2020-09-03 21:00:00 24.6 9 Este 21 Sudeste 0 -- -- 61
2020-09-03 20:00:00 26.8 14 Sudeste 28 Este 0 -- -- 53
2020-09-03 19:00:00 28.6 15 Este 28 Sudeste 0 -- -- 48
2020-09-03 18:00:00 29.4 20 Sudeste 32 Sudeste 0 -- -- 45
2020-09-03 17:00:00 30.4 13 Sudeste 29 Sudeste 0 -- -- 42
2020-09-03 16:00:00 30.4 14 Sudeste 30 Sudeste 0 -- -- 44
2020-09-03 15:00:00 30.4 15 Sudeste 29 Sudeste 0 -- -- 45
2020-09-03 14:00:00 29.1 11 Sudeste 26 Sudeste 0 -- -- 46
2020-09-03 13:00:00 28.4 10 Sudeste 20 Sudeste 0 -- -- 51
2020-09-03 12:00:00 26.9 4 Nordeste 14 Sudeste 0 -- -- 58
2020-09-03 11:00:00 25.1 4 Sudeste 11 Este 0 -- -- 65
2020-09-03 10:00:00 22.4 2 Sur 9 Noroeste 0 -- -- 73
2020-09-03 09:00:00 18.4 2 Noroeste 5 Norte 0 -- -- 90
2020-09-03 08:00:00 17.1 3 Norte 5 Norte 0 -- -- 90
2020-09-03 07:00:00 17.6 0 Calma 3 Noroeste 0 -- -- 88
2020-09-03 06:00:00 18.2 2 Noroeste 8 Norte 0 -- -- 86
2020-09-03 05:00:00 18.3 6 Norte 8 Norte 0 -- -- 88
2020-09-03 04:00:00 18.5 0 Calma 6 Nordeste 0 -- -- 83
2020-09-03 03:00:00 18.8 0 Calma 4 Noroeste 0 -- -- 80
2020-09-03 02:00:00 19.3 3 Noroeste 4 Norte 0 -- -- 78
2020-09-03 01:00:00 20.4 0 Calma 6 Norte 0 -- -- 74
2020-09-03 00:00:00 21.2 4 Nordeste 6 Nordeste 0 -- -- 74
2020-09-02 23:00:00 22.6 4 Este 8 Sudeste 0 -- -- 68
2020-09-02 22:00:00 23.8 4 Este 13 Sudeste 0 -- -- 62
2020-09-02 21:00:00 24.9 8 Sudeste 20 Este 0 -- -- 56
2020-09-02 20:00:00 26.4 12 Este 28 Sudeste 0 -- -- 52
2020-09-02 19:00:00 28.5 17 Sudeste 30 Sudeste 0 -- -- 47
2020-09-02 18:00:00 29 18 Sudeste 36 Sudeste 0 -- -- 44
2020-09-02 17:00:00 30.4 21 Sudeste 36 Sudeste 0 -- -- 41
2020-09-02 16:00:00 30.7 18 Sudeste 32 Sudeste 0 -- -- 44
2020-09-02 15:00:00 28.8 12 Sudeste 24 Sudeste 0 -- -- 49
2020-09-02 14:00:00 29.8 12 Sudeste 26 Sudeste 0 -- -- 46
2020-09-02 13:00:00 28.4 10 Sudeste 19 Sur 0 -- -- 48
2020-09-02 12:00:00 27.1 8 Sudeste 19 Este 0 -- -- 54
2020-09-02 11:00:00 25 7 Este 14 Sudeste 0 -- -- 56
2020-09-02 10:00:00 22.8 7 Este 12 Este 0 -- -- 68
2020-09-02 09:00:00 19 2 Noroeste 6 Norte 0 -- -- 82
2020-09-02 08:00:00 17.7 4 Norte 8 Noroeste 0 -- -- 83
2020-09-02 07:00:00 18.4 4 Este 6 Nordeste 0 -- -- 80
2020-09-02 06:00:00 18.8 4 Noroeste 9 Norte 0 -- -- 78
2020-09-02 05:00:00 19 3 Noroeste 4 Noroeste 0 -- -- 77
2020-09-02 04:00:00 19.3 2 Noroeste 6 Norte 0 -- -- 77
2020-09-02 03:00:00 19.4 3 Norte 6 Noroeste 0 -- -- 77
2020-09-02 02:00:00 19.8 4 Noroeste 6 Norte 0 -- -- 74
2020-09-02 01:00:00 20.8 0 Calma 4 Sudeste 0 -- -- 72
2020-09-02 00:00:00 21.4 3 Este 9 Este 0 -- -- 71
2020-09-01 23:00:00 21.8 3 Nordeste 12 Sudeste 0 -- -- 69
2020-09-01 22:00:00 22.5 6 Este 10 Este 0 -- -- 66
2020-09-01 21:00:00 23.5 5 Este 13 Sur 0 -- -- 63
2020-09-01 20:00:00 25.1 8 Sur 22 Sudeste 0 -- -- 58
2020-09-01 19:00:00 27.1 11 Sudeste 19 Sudeste 0 -- -- 53
2020-09-01 18:00:00 26.7 14 Sudeste 23 Sudeste 0 -- -- 55
2020-09-01 17:00:00 28.1 13 Sudeste 24 Sudeste 0 -- -- 50
2020-09-01 16:00:00 27.3 8 Sudeste 13 Sudeste 0 -- -- 49
2020-09-01 15:00:00 28 5 Sur 15 Sudeste 0 -- -- 47
2020-09-01 14:00:00 27 6 Nordeste 14 Sudeste 0 -- -- 49
2020-09-01 13:00:00 26 9 Este 15 Sudeste 0 -- -- 52
2020-09-01 12:00:00 25.3 6 Sudeste 15 Sudeste 0 -- -- 57
2020-09-01 11:00:00 24.2 4 Sudoeste 10 Sudeste 0 -- -- 63
2020-09-01 10:00:00 21.2 0 Calma 5 Sur 0 -- -- 75
2020-09-01 09:00:00 17.8 0 Calma 6 Noroeste 0 -- -- 88
2020-09-01 08:00:00 15.9 6 Noroeste 7 Noroeste 0 -- -- 87
2020-09-01 07:00:00 16.2 4 Norte 8 Noroeste 0 -- -- 85
2020-09-01 06:00:00 16.6 3 Norte 4 Noroeste 0 -- -- 82
2020-09-01 05:00:00 17.3 4 Oeste 8 Noroeste 0 -- -- 81
2020-09-01 04:00:00 18.5 0 Calma 4 Este 0 -- -- 75
2020-09-01 03:00:00 19.9 4 Nordeste 8 Nordeste 0 -- -- 75
2020-09-01 02:00:00 20.4 0 Calma 6 Nordeste 0 -- -- 72
2020-09-01 01:00:00 20.4 3 Nordeste 4 Nordeste 0 -- -- 71
2020-09-01 00:00:00 20.7 3 Nordeste 6 Nordeste 0 -- -- 71
2020-08-31 23:00:00 21.1 4 Este 9 Este 0 -- -- 68
2020-08-31 22:00:00 22.1 5 Sudeste 9 Sudeste 0 -- -- 62
2020-08-31 21:00:00 23.6 7 Sudeste 20 Sudeste 0 -- -- 57
2020-08-31 20:00:00 25.6 14 Sudeste 29 Sudeste 0 -- -- 51
2020-08-31 19:00:00 27.2 19 Sudeste 35 Sudeste 0 -- -- 47
2020-08-31 18:00:00 27.7 17 Sur 37 Sudeste 0 -- -- 47
2020-08-31 17:00:00 27.8 17 Sudeste 30 Sudeste 0 -- -- 47
2020-08-31 16:00:00 27.6 12 Sudeste 26 Sudeste 0 -- -- 46
2020-08-31 15:00:00 27.2 14 Sudeste 27 Sudeste 0 -- -- 45
2020-08-31 14:00:00 27.5 8 Sudeste 25 Sudeste 0 -- -- 42
2020-08-31 13:00:00 27.3 12 Sudeste 27 Sudeste 0 -- -- 43
2020-08-31 12:00:00 26.2 9 Sudeste 23 Sur 0 -- -- 48
2020-08-31 11:00:00 24.2 5 Sudeste 18 Sudeste 0 -- -- 50
2020-08-31 10:00:00 21.6 3 Noroeste 13 Noroeste 0 -- -- 53
2020-08-31 09:00:00 18.6 9 Norte 17 Noroeste 0 -- -- 70
2020-08-31 08:00:00 15.7 11 Norte 17 Norte 0 -- -- 81
2020-08-31 07:00:00 14.9 2 Noroeste 8 Noroeste 0 -- -- 81
2020-08-31 06:00:00 15.5 4 Noroeste 5 Oeste 0 -- -- 80
2020-08-31 05:00:00 16.5 0 Calma 11 Norte 0 -- -- 78
2020-08-31 04:00:00 16.6 3 Noroeste 4 Noroeste 0 -- -- 75
2020-08-31 03:00:00 17.4 0 Calma 8 Norte 0 -- -- 74
2020-08-31 02:00:00 18.2 7 Norte 9 Norte 0 -- -- 72
2020-08-31 01:00:00 18.4 6 Norte 7 Norte 0 -- -- 71
2020-08-31 00:00:00 19.3 4 Norte 6 Nordeste 0 -- -- 68
2020-08-30 23:00:00 20.4 0 Calma 12 Este 0 -- -- 66
2020-08-30 22:00:00 21.5 8 Este 18 Sudeste 0 -- -- 64
2020-08-30 21:00:00 22.4 13 Este 30 Este 0 -- -- 62
2020-08-30 20:00:00 24.5 18 Sudeste 38 Este 0 -- -- 55
2020-08-30 19:00:00 25.9 23 Este 41 Este 0 -- -- 51
2020-08-30 18:00:00 28 23 Sudeste 38 Sudeste 0 -- -- 45
2020-08-30 17:00:00 29.2 14 Sur 29 Sudeste 0 -- -- 34
2020-08-30 16:00:00 29.5 12 Sur 22 Sur 0 -- -- 29
2020-08-30 15:00:00 28.7 5 Sudoeste 19 Sudoeste 0 -- -- 27
2020-08-30 14:00:00 27.1 8 Oeste 18 Oeste 0 -- -- 31
2020-08-30 13:00:00 26.5 9 Oeste 22 Oeste 0 -- -- 33
2020-08-30 12:00:00 25 13 Oeste 23 Noroeste 0 -- -- 36
2020-08-30 11:00:00 23.3 13 Noroeste 23 Noroeste 0 -- -- 38
2020-08-30 10:00:00 21.9 17 Noroeste 29 Noroeste 0 -- -- 40
2020-08-30 09:00:00 19.4 19 Noroeste 28 Noroeste 0 -- -- 45
2020-08-30 08:00:00 17.1 8 Noroeste 16 Noroeste 0 -- -- 52
2020-08-30 07:00:00 17.6 6 Noroeste 17 Noroeste 0 -- -- 53
2020-08-30 06:00:00 17.6 10 Norte 16 Norte 0 -- -- 50
2020-08-30 05:00:00 17.6 10 Norte 16 Norte 0 -- -- 49
2020-08-30 04:00:00 17.4 10 Norte 13 Norte 0 -- -- 75
2020-08-30 03:00:00 17.8 0 Calma 14 Este 0 -- -- 69
2020-08-30 02:00:00 19.4 6 Este 15 Nordeste 0 -- -- 54
2020-08-30 01:00:00 20.5 11 Norte 15 Norte 0 -- -- 34
2020-08-30 00:00:00 21.5 9 Noroeste 18 Norte 0 -- -- 33
2020-08-29 23:00:00 22.5 10 Noroeste 30 Norte 0 -- -- 33
2020-08-29 22:00:00 21 3 Sudeste 15 Sudeste 0 -- -- 79
2020-08-29 21:00:00 22.4 10 Sudeste 16 Sudeste 0 -- -- 77
2020-08-29 20:00:00 24.3 15 Sudeste 27 Sudeste 0 -- -- 70
2020-08-29 19:00:00 27.3 10 Este 26 Sudeste 0 -- -- 61
2020-08-29 18:00:00 27.4 16 Este 39 Sudeste 0 -- -- 66
2020-08-29 17:00:00 30.9 21 Sudeste 37 Sudeste 0 -- -- 53
2020-08-29 16:00:00 34 17 Sudeste 28 Sudeste 0 -- -- 36
2020-08-29 15:00:00 33.6 9 Noroeste 22 Oeste 0 -- -- 20
2020-08-29 14:00:00 32.5 6 Sudoeste 16 Oeste 0 -- -- 21
2020-08-29 13:00:00 31.4 6 Oeste 20 Noroeste 0 -- -- 22
2020-08-29 12:00:00 29.8 5 Norte 15 Noroeste 0 -- -- 23
2020-08-29 11:00:00 28.1 4 Sur 13 Oeste 0 -- -- 25
2020-08-29 10:00:00 26 3 Sudoeste 10 Sudoeste 0 -- -- 28
2020-08-29 09:00:00 23.1 3 Sur 7 Norte 0 -- -- 36
2020-08-29 08:00:00 22.1 0 Calma 10 Noroeste 0 -- -- 35
2020-08-29 07:00:00 23.9 5 Oeste 15 Noroeste 0 -- -- 34
2020-08-29 06:00:00 26.3 12 Noroeste 26 Noroeste 0 -- -- 28
2020-08-29 05:00:00 26.9 10 Noroeste 27 Noroeste 0 -- -- 31
2020-08-29 04:00:00 23.3 5 Noroeste 13 Noroeste 0 -- -- 49
2020-08-29 03:00:00 23.2 4 Sudoeste 10 Oeste 0 -- -- 72
2020-08-29 02:00:00 23.6 3 Oeste 6 Oeste 0 -- -- 83
2020-08-29 01:00:00 24.3 5 Norte 6 Norte 0 -- -- 81
2020-08-29 00:00:00 25.9 0 Calma 6 Este 0 -- -- 79
2020-08-28 23:00:00 27 3 Sudeste 13 Sudeste 0 -- -- 76
2020-08-28 22:00:00 28.4 8 Sudeste 17 Sudeste 0 -- -- 70
2020-08-28 21:00:00 29.9 8 Este 21 Este 0 -- -- 64
2020-08-28 20:00:00 32.3 14 Este 26 Sudeste 0 -- -- 54
2020-08-28 19:00:00 34 15 Este 26 Este 0 -- -- 49
2020-08-28 18:00:00 36.1 15 Este 27 Este 0 -- -- 45
2020-08-28 17:00:00 37.4 11 Sudeste 24 Este 0 -- -- 37
2020-08-28 16:00:00 36.8 10 Este 23 Sudeste 0 -- -- 32
2020-08-28 15:00:00 35.4 6 Este 20 Sudeste 0 -- -- 35
2020-08-28 14:00:00 33.5 8 Este 18 Sudeste 0 -- -- 39
2020-08-28 13:00:00 31.9 8 Este 16 Este 0 -- -- 40
2020-08-28 12:00:00 30 7 Sudeste 14 Sudeste 0 -- -- 47
2020-08-28 11:00:00 27.3 4 Este 10 Sudeste 0 -- -- 57
2020-08-28 10:00:00 24.6 3 Sudoeste 9 Noroeste 0 -- -- 83
2020-08-28 09:00:00 22.3 6 Oeste 9 Oeste 0 -- -- 93
2020-08-28 08:00:00 19.4 4 Noroeste 7 Noroeste 0 -- -- 85
2020-08-28 07:00:00 20.4 4 Noroeste 5 Noroeste 0 -- -- 85
2020-08-28 06:00:00 21.7 3 Noroeste 4 Norte 0 -- -- 80
2020-08-28 05:00:00 23 4 Este 13 Este 0 -- -- 87
2020-08-28 04:00:00 21.6 3 Este 6 Noroeste 0 -- -- 77
2020-08-28 03:00:00 22.7 3 Nordeste 5 Este 0 -- -- 80
2020-08-28 02:00:00 24.5 3 Este 9 Este 0 -- -- 82
2020-08-28 01:00:00 25.5 5 Este 13 Este 0 -- -- 81
2020-08-28 00:00:00 26.3 8 Este 15 Este 0 -- -- 75
2020-08-27 23:00:00 27.3 9 Este 19 Este 0 -- -- 69
2020-08-27 22:00:00 28.5 9 Este 21 Este 0 -- -- 65
2020-08-27 21:00:00 31 12 Este 23 Este 0 -- -- 51
2020-08-27 20:00:00 34.3 14 Sudeste 30 Sudeste 0 -- -- 32
2020-08-27 19:00:00 36.2 21 Sudeste 31 Sudeste 0 -- -- 29
2020-08-27 18:00:00 37.2 22 Sudeste 39 Sudeste 0 -- -- 28
2020-08-27 17:00:00 38.7 18 Sudeste 35 Sudeste 0 -- -- 28
2020-08-27 16:00:00 38.7 13 Sudeste 28 Sudeste 0 -- -- 30
2020-08-27 15:00:00 37.8 14 Sudeste 27 Sudeste 0 -- -- 29
2020-08-27 14:00:00 36.6 11 Sudeste 21 Sudeste 0 -- -- 29
2020-08-27 13:00:00 34.3 6 Este 17 Sudeste 0 -- -- 33
2020-08-27 12:00:00 32.1 7 Sudeste 15 Este 0 -- -- 38
2020-08-27 11:00:00 29 2 Sudeste 8 Sudoeste 0 -- -- 48
2020-08-27 10:00:00 25.9 5 Oeste 9 Oeste 0 -- -- 60
2020-08-27 09:00:00 22.2 3 Sudoeste 5 Sudoeste 0 -- -- 71
2020-08-27 08:00:00 20.1 3 Noroeste 5 Oeste 0 -- -- 81
2020-08-27 07:00:00 19.9 5 Noroeste 10 Norte 0 -- -- 74
2020-08-27 06:00:00 19.7 5 Norte 9 Norte 0 -- -- 73
2020-08-27 05:00:00 20.2 5 Noroeste 9 Norte 0 -- -- 71
2020-08-27 04:00:00 20.5 4 Norte 6 Noroeste 0 -- -- 74
2020-08-27 03:00:00 21.3 5 Noroeste 7 Norte 0 -- -- 80
2020-08-27 02:00:00 22.2 6 Noroeste 8 Noroeste 0 -- -- 81
2020-08-27 01:00:00 23.5 4 Norte 8 Noroeste 0 -- -- 79
2020-08-27 00:00:00 25.2 4 Nordeste 9 Este 0 -- -- 77
2020-08-26 23:00:00 26.6 5 Sudeste 14 Este 0 -- -- 72
2020-08-26 22:00:00 27.8 7 Este 20 Este 0 -- -- 63
2020-08-26 21:00:00 29.7 10 Este 24 Este 0 -- -- 50
2020-08-26 20:00:00 33 14 Este 27 Sudeste 0 -- -- 41
2020-08-26 19:00:00 35.1 17 Este 30 Este 0 -- -- 32
2020-08-26 18:00:00 36.9 17 Sudeste 32 Sudeste 0 -- -- 31
2020-08-26 17:00:00 37.2 15 Sudeste 29 Sudeste 0 -- -- 32
2020-08-26 16:00:00 37.7 14 Sudeste 26 Sudeste 0 -- -- 34
2020-08-26 15:00:00 37 13 Sudeste 29 Sudeste 0 -- -- 32
2020-08-26 14:00:00 35.6 9 Sur 25 Sudeste 0 -- -- 34
2020-08-26 13:00:00 33.9 8 Sudeste 21 Este 0 -- -- 37
2020-08-26 12:00:00 31.4 7 Este 13 Sudeste 0 -- -- 44
2020-08-26 11:00:00 28.2 4 Sudeste 10 Sur 0 -- -- 50
2020-08-26 10:00:00 24.6 3 Oeste 7 Oeste 0 -- -- 69
2020-08-26 09:00:00 21.5 2 Sudoeste 6 Oeste 0 -- -- 90
2020-08-26 08:00:00 19.1 6 Noroeste 8 Noroeste 0 -- -- 89
2020-08-26 07:00:00 18.8 5 Noroeste 7 Noroeste 0 -- -- 86
2020-08-26 06:00:00 19.5 4 Norte 6 Noroeste 0 -- -- 88
2020-08-26 05:00:00 21.1 4 Norte 6 Noroeste 0 -- -- 92
2020-08-26 04:00:00 22.1 0 Calma 4 Noroeste 0 -- -- 90
2020-08-26 03:00:00 22.9 2 Nordeste 8 Nordeste 0 -- -- 91
2020-08-26 02:00:00 23.5 5 Nordeste 7 Nordeste 0 -- -- 90
2020-08-26 01:00:00 24.3 2 Nordeste 8 Este 0 -- -- 86
2020-08-26 00:00:00 25.3 6 Este 14 Sudeste 0 -- -- 84
2020-08-25 23:00:00 26.2 7 Este 15 Este 0 -- -- 78
2020-08-25 22:00:00 27.4 9 Este 16 Este 0 -- -- 69
2020-08-25 21:00:00 29.1 8 Sudeste 23 Este 0 -- -- 60
2020-08-25 20:00:00 31.9 15 Este 26 Este 0 -- -- 48
2020-08-25 19:00:00 34.1 15 Este 26 Sur 0 -- -- 42
2020-08-25 18:00:00 34.9 17 Sudeste 33 Sudeste 0 -- -- 41
2020-08-25 17:00:00 35.3 14 Sudeste 27 Sudeste 0 -- -- 40
2020-08-25 16:00:00 36.1 13 Sudeste 34 Sudeste 0 -- -- 39
2020-08-25 15:00:00 35.9 14 Sudeste 24 Sudeste 0 -- -- 35
2020-08-25 14:00:00 34.3 13 Sudeste 25 Sudeste 0 -- -- 37
2020-08-25 13:00:00 32 5 Este 16 Sudeste 0 -- -- 44
2020-08-25 12:00:00 30.1 4 Este 13 Sudeste 0 -- -- 52
2020-08-25 11:00:00 27.6 4 Sur 8 Sudeste 0 -- -- 58
2020-08-25 10:00:00 25.1 3 Sudoeste 8 Sudoeste 0 -- -- 79
2020-08-25 09:00:00 22.1 0 Calma 6 Noroeste 0 -- -- 90
2020-08-25 08:00:00 19.7 4 Norte 9 Noroeste 0 -- -- 91
2020-08-25 07:00:00 19.6 4 Norte 7 Norte 0 -- -- 90
2020-08-25 06:00:00 20 5 Noroeste 6 Noroeste 0 -- -- 89
2020-08-25 05:00:00 21 2 Norte 7 Noroeste 0 -- -- 89
2020-08-25 04:00:00 21.6 3 Norte 8 Norte 0 -- -- 89
2020-08-25 03:00:00 22.1 4 Norte 9 Norte 0 -- -- 88
2020-08-25 02:00:00 22.6 2 Norte 4 Noroeste 0 -- -- 82
2020-08-25 01:00:00 23.8 0 Calma 6 Nordeste 0 -- -- 81
2020-08-25 00:00:00 24.6 4 Este 9 Este 0 -- -- 79
2020-08-24 23:00:00 25.2 5 Este 9 Este 0 -- -- 77
2020-08-24 22:00:00 26.1 7 Sudeste 21 Sudeste 0 -- -- 74
2020-08-24 21:00:00 27.4 10 Sudeste 22 Sudeste 0 -- -- 67
2020-08-24 20:00:00 29.4 16 Sudeste 27 Sudeste 0 -- -- 61
2020-08-24 19:00:00 31.3 15 Sudeste 31 Sudeste 0 -- -- 55
2020-08-24 18:00:00 32.1 18 Sudeste 29 Sudeste 0 -- -- 53
2020-08-24 17:00:00 32.3 16 Sudeste 30 Sudeste 0 -- -- 52
2020-08-24 16:00:00 32.4 16 Sudeste 30 Sudeste 0 -- -- 51
2020-08-24 15:00:00 32 16 Sudeste 29 Sudeste 0 -- -- 50
2020-08-24 14:00:00 31.2 13 Sudeste 24 Sudeste 0 -- -- 53
2020-08-24 13:00:00 30.7 10 Sudeste 21 Sudeste 0 -- -- 55
2020-08-24 12:00:00 29.2 8 Sudeste 18 Sur 0 -- -- 63
2020-08-24 11:00:00 27.5 6 Sudeste 17 Sudeste 0 -- -- 72
2020-08-24 10:00:00 26.5 10 Sudeste 16 Sudeste 0 -- -- 76
2020-08-24 09:00:00 25.5 5 Este 9 Este 0 -- -- 85
2020-08-24 08:00:00 23.6 0 Calma 5 Sudeste 0 -- -- 88
2020-08-24 07:00:00 24.3 3 Este 6 Este 0 -- -- 87
2020-08-24 06:00:00 25 4 Sudeste 6 Este 0 -- -- 86
2020-08-24 05:00:00 25.2 3 Sudeste 8 Sudeste 0 -- -- 85
2020-08-24 04:00:00 25.4 0 Calma 3 Sudeste 0 -- -- 84
2020-08-24 03:00:00 25.5 0 Calma 6 Sudeste 0 -- -- 84
2020-08-24 02:00:00 25.8 4 Sudeste 13 Sudeste 0 -- -- 83
2020-08-24 01:00:00 26.3 9 Sudeste 13 Sudeste 0 -- -- 83
2020-08-24 00:00:00 26.4 2 Sudeste 5 Sur 0 -- -- 79
2020-08-23 23:00:00 26.3 3 Sur 12 Sudeste 0 -- -- 79
2020-08-23 22:00:00 26.9 8 Este 19 Este 0 -- -- 76
2020-08-23 21:00:00 27.8 12 Este 26 Este 0 -- -- 71
2020-08-23 20:00:00 30 16 Sudeste 30 Sudeste 0 -- -- 61
2020-08-23 19:00:00 31.2 21 Sudeste 33 Sudeste 0 -- -- 57
2020-08-23 18:00:00 32.5 17 Sudeste 29 Sudeste 0 -- -- 53
2020-08-23 17:00:00 33.1 19 Sudeste 35 Sudeste 0 -- -- 51
2020-08-23 16:00:00 34.2 21 Sudeste 37 Sudeste 0 -- -- 48
2020-08-23 15:00:00 33.6 20 Sudeste 38 Este 0 -- -- 48
2020-08-23 14:00:00 33.3 18 Sudeste 33 Sudeste 0 -- -- 50
2020-08-23 13:00:00 31.6 19 Este 32 Este 0 -- -- 57
2020-08-23 12:00:00 30.3 17 Este 28 Este 0 -- -- 61
2020-08-23 11:00:00 29.7 14 Sudeste 24 Este 0 -- -- 67
2020-08-23 10:00:00 27.6 11 Este 22 Este 0 -- -- 77
2020-08-23 09:00:00 26.1 10 Este 17 Este 0 -- -- 86
2020-08-23 08:00:00 24.2 3 Nordeste 9 Nordeste 0 -- -- 88
2020-08-23 07:00:00 24.5 5 Este 8 Sudeste 0 -- -- 87
2020-08-23 06:00:00 24.8 0 Calma 5 Nordeste 0 -- -- 88
2020-08-23 05:00:00 24.4 3 Norte 6 Norte 0 -- -- 92
2020-08-23 04:00:00 23 2 Norte 4 Norte 0 -- -- 92
2020-08-23 03:00:00 22.8 4 Norte 5 Norte 0 -- -- 89
2020-08-23 02:00:00 23.6 4 Noroeste 5 Noroeste 0 -- -- 86
2020-08-23 01:00:00 24.4 3 Noroeste 4 Noroeste 0 -- -- 85
2020-08-23 00:00:00 25.7 0 Calma 6 Este 0 -- -- 82
2020-08-22 23:00:00 26.5 4 Este 12 Sudeste 0 -- -- 80
2020-08-22 22:00:00 27.3 10 Sudeste 20 Este 0 -- -- 77
2020-08-22 21:00:00 28.2 15 Este 29 Este 0 -- -- 75
2020-08-22 20:00:00 30.6 17 Este 27 Sudeste 0 -- -- 64
2020-08-22 19:00:00 32.2 19 Sudeste 33 Sudeste 0 -- -- 58
2020-08-22 18:00:00 33.4 20 Sudeste 32 Sudeste 0 -- -- 53
2020-08-22 17:00:00 34.8 20 Sudeste 35 Sudeste 0 -- -- 51
2020-08-22 16:00:00 35.3 22 Sudeste 36 Sudeste 0 -- -- 48
2020-08-22 15:00:00 36.1 19 Sudeste 33 Sudeste 0 -- -- 44
2020-08-22 14:00:00 36.1 11 Este 24 Sudeste 0 -- -- 41
2020-08-22 13:00:00 34.8 10 Este 21 Sudeste 0 -- -- 45
2020-08-22 12:00:00 33.9 10 Este 21 Sudeste 0 -- -- 38
2020-08-22 11:00:00 32.2 10 Noroeste 23 Norte 0 -- -- 34
2020-08-22 10:00:00 29.2 15 Noroeste 33 Noroeste 0 -- -- 38
2020-08-22 09:00:00 26.9 18 Noroeste 35 Noroeste 0 -- -- 38
2020-08-22 08:00:00 24.8 14 Noroeste 29 Noroeste 0 -- -- 44
2020-08-22 07:00:00 24.4 15 Noroeste 29 Noroeste 0 -- -- 52
2020-08-22 06:00:00 24.1 13 Noroeste 22 Noroeste 0 -- -- 66
2020-08-22 05:00:00 23.5 11 Oeste 18 Noroeste 0 -- -- 72
2020-08-22 04:00:00 22.4 6 Noroeste 10 Norte 0 -- -- 78
2020-08-22 03:00:00 22.8 6 Noroeste 8 Norte 0 -- -- 77
2020-08-22 02:00:00 23.6 4 Norte 6 Norte 0 -- -- 77
2020-08-22 01:00:00 24.8 0 Calma 5 Sudeste 0 -- -- 73
2020-08-22 00:00:00 26.2 0 Calma 5 Este 0 -- -- 67
2020-08-21 23:00:00 27.7 4 Este 8 Sudeste 0 -- -- 64
2020-08-21 22:00:00 29.4 4 Este 13 Este 0 -- -- 59
2020-08-21 21:00:00 31.2 8 Este 18 Este 0 -- -- 56
2020-08-21 20:00:00 33.7 12 Este 25 Sudeste 0 -- -- 52
2020-08-21 19:00:00 35.6 14 Este 28 Sudeste 0 -- -- 48
2020-08-21 18:00:00 37.3 17 Este 28 Este 0 -- -- 46
2020-08-21 17:00:00 37.8 13 Sudeste 33 Sudeste 0 -- -- 43
2020-08-21 16:00:00 38.1 9 Este 20 Sudeste 0 -- -- 29
2020-08-21 15:00:00 36.5 13 Sudeste 22 Este 0 -- -- 32
2020-08-21 14:00:00 34.8 9 Sudeste 19 Sudeste 0 -- -- 43
2020-08-21 13:00:00 32.9 6 Sudeste 14 Sudeste 0 -- -- 51
2020-08-21 12:00:00 31 4 Sur 18 Sur 0 -- -- 54
2020-08-21 11:00:00 28.5 3 Sudeste 11 Este 0 -- -- 65
2020-08-21 10:00:00 26.5 3 Este 10 Nordeste 0 -- -- 73
2020-08-21 09:00:00 24.9 4 Este 14 Norte 0 -- -- 82
2020-08-21 08:00:00 23.7 12 Noroeste 22 Noroeste 0 -- -- 88
2020-08-21 07:00:00 23 5 Norte 12 Oeste 0 -- -- 86
2020-08-21 06:00:00 23.4 6 Noroeste 26 Noroeste 0 -- -- 86
2020-08-21 05:00:00 23.3 7 Noroeste 13 Noroeste 0 -- -- 91
2020-08-21 04:00:00 23.1 5 Noroeste 6 Noroeste 0 -- -- 89
2020-08-21 03:00:00 23.7 4 Norte 8 Noroeste 0 -- -- 88
2020-08-21 02:00:00 24.7 2 Noroeste 8 Sudeste 0 -- -- 85
2020-08-21 01:00:00 25.2 4 Sudeste 14 Este 0 -- -- 86
2020-08-21 00:00:00 25.6 8 Este 16 Este 0 -- -- 84